Time;durP1;ratioP1;P1;durP2;ratioP2;P2;SDS_P1;SDS_P2;PMS_P1;PMS_P2;Temp;Humidity;BMP_temperature;BMP_pressure;BME280_temperature;BME280_humidity;BME280_pressure;Samples;Min_cycle;Max_cycle;Signal;HPM_P1;HPM_P2
2022/03/30 00:02:09;;;;;;;8.13;4.38;;;;;;;20.39;44.44;98424.00;4978733;28;20019;-94
2022/03/30 00:05:01;;;;;;;7.68;4.68;;;;;;;20.40;44.54;98423.03;4979562;28;20019;-95
2022/03/30 00:13:40;;;;;;;7.28;3.70;;;;;;;20.39;44.19;98414.25;4980535;28;20042;-93
2022/03/30 00:16:16;;;;;;;7.97;4.05;;;;;;;20.38;44.23;98407.25;4963348;28;20045;-94
2022/03/30 00:19:06;;;;;;;5.78;3.55;;;;;;;20.39;44.33;98403.66;4970896;28;20030;-94
2022/03/30 00:21:33;;;;;;;6.20;3.90;;;;;;;20.40;44.42;98409.81;4962713;28;20027;-93
2022/03/30 00:24:28;;;;;;;5.55;3.58;;;;;;;20.39;44.29;98408.94;4966325;28;20023;-94
2022/03/30 00:30:19;;;;;;;6.70;3.75;;;;;;;20.39;44.50;98400.16;4983952;28;20066;-95
2022/03/30 03:39:28;;;;;;;5.10;2.85;;;;;;;20.09;44.42;98195.78;4997605;28;20049;-95
2022/03/30 03:41:55;;;;;;;6.07;3.58;;;;;;;20.08;44.65;98199.38;4982856;28;20047;-93
2022/03/30 03:44:21;;;;;;;5.90;3.10;;;;;;;20.09;44.57;98198.41;4983430;28;20050;-95
2022/03/30 03:46:50;;;;;;;6.10;2.85;;;;;;;20.09;44.34;98200.22;4983378;28;20050;-95
2022/03/30 03:49:19;;;;;;;5.72;2.83;;;;;;;20.08;44.70;98196.75;4978051;28;20019;-95
2022/03/30 04:49:43;;;;;;;5.32;2.55;;;;;;;20.07;44.53;98184.47;5352820;23;20099;-94
2022/03/30 04:52:13;;;;;;;5.07;2.88;;;;;;;20.07;44.64;98178.31;4983122;28;20031;-95
2022/03/30 05:03:42;;;;;;;5.43;2.75;;;;;;;20.06;44.34;98180.13;5382483;23;20055;-93
2022/03/30 05:06:07;;;;;;;5.95;2.35;;;;;;;20.06;44.43;98188.09;4979188;28;20046;-93
2022/03/30 05:08:33;;;;;;;6.03;2.70;;;;;;;20.05;44.43;98186.38;4977358;28;20035;-89
2022/03/30 05:10:58;;;;;;;5.32;2.45;;;;;;;20.05;44.35;98190.84;4981310;28;20528;-89
2022/03/30 05:13:24;;;;;;;4.38;2.42;;;;;;;20.04;44.69;98192.63;4982876;28;20015;-89
2022/03/30 05:15:51;;;;;;;3.80;2.33;;;;;;;20.04;44.36;98186.50;4983694;28;20069;-89
2022/03/30 05:18:17;;;;;;;4.63;2.67;;;;;;;20.05;44.47;98183.72;4977875;28;20045;-88
2022/03/30 05:20:47;;;;;;;6.10;2.90;;;;;;;20.06;44.48;98198.69;4979925;28;20007;-89
2022/03/30 05:23:13;;;;;;;4.13;2.80;;;;;;;20.06;44.36;98187.22;4989529;28;20045;-89
2022/03/30 05:25:39;;;;;;;6.50;2.70;;;;;;;20.04;44.50;98189.16;4981608;28;20034;-93
2022/03/30 05:28:05;;;;;;;4.00;2.58;;;;;;;20.04;44.63;98194.47;4980527;28;20015;-91
2022/03/30 05:30:31;;;;;;;4.93;2.65;;;;;;;20.05;44.25;98193.50;4982854;28;20042;-91
2022/03/30 05:33:00;;;;;;;5.53;2.85;;;;;;;20.04;44.57;98191.81;4981963;28;20046;-92
2022/03/30 05:35:26;;;;;;;4.30;2.40;;;;;;;20.04;44.35;98195.28;4961723;28;20031;-90
2022/03/30 05:37:57;;;;;;;4.03;2.70;;;;;;;20.03;44.58;98190.94;4970984;28;20027;-90
2022/03/30 05:40:22;;;;;;;4.68;2.95;;;;;;;20.04;44.48;98200.56;4970389;28;20031;-90
2022/03/30 05:42:48;;;;;;;5.38;2.60;;;;;;;20.02;44.36;98197.22;4976148;28;20030;-89
2022/03/30 05:45:13;;;;;;;4.72;2.47;;;;;;;20.02;44.22;98202.50;4977079;28;20030;-90
2022/03/30 05:47:39;;;;;;;4.88;2.90;;;;;;;20.03;44.34;98205.97;4974089;28;20103;-90
2022/03/30 05:50:07;;;;;;;5.30;2.38;;;;;;;20.01;44.38;98198.19;4971339;28;20027;-90
2022/03/30 05:52:33;;;;;;;4.45;2.65;;;;;;;20.01;44.53;98205.28;4971979;28;20030;-89
2022/03/30 05:54:58;;;;;;;3.75;2.30;;;;;;;20.01;44.36;98210.56;4970502;28;20121;-89
2022/03/30 05:57:24;;;;;;;5.18;2.42;;;;;;;20.00;44.36;98212.34;4973384;28;20061;-90
2022/03/30 05:59:50;;;;;;;5.13;2.53;;;;;;;19.99;44.32;98215.97;4973634;28;20034;-89
2022/03/30 06:02:16;;;;;;;3.65;2.20;;;;;;;19.98;44.36;98211.63;4974135;28;20030;-90
2022/03/30 06:04:42;;;;;;;5.57;2.58;;;;;;;19.99;44.47;98215.97;4972897;28;20054;-89
2022/03/30 06:07:08;;;;;;;4.95;2.70;;;;;;;19.98;44.36;98214.28;4975752;28;20372;-91
2022/03/30 06:09:34;;;;;;;5.80;2.60;;;;;;;20.00;44.30;98220.31;4974540;28;20039;-90
2022/03/30 06:12:04;;;;;;;4.45;2.70;;;;;;;19.99;44.23;98215.97;4975356;28;20030;-89
2022/03/30 06:14:33;;;;;;;5.65;2.70;;;;;;;19.97;44.38;98212.59;4975006;28;20094;-89
2022/03/30 06:17:00;;;;;;;4.25;2.60;;;;;;;19.98;44.25;98214.28;4976146;28;20031;-91
2022/03/30 06:19:27;;;;;;;7.75;2.85;;;;;;;19.98;44.36;98214.28;4975669;28;20019;-89
2022/03/30 06:21:52;;;;;;;5.22;3.05;;;;;;;19.99;44.45;98221.25;4974583;28;20026;-91
2022/03/30 06:24:18;;;;;;;4.57;2.53;;;;;;;20.00;44.28;98220.31;4992745;28;20034;-89
2022/03/30 06:26:44;;;;;;;5.43;2.67;;;;;;;19.96;44.26;98221.53;4975238;28;20062;-90
2022/03/30 06:29:10;;;;;;;6.40;2.65;;;;;;;19.98;44.32;98222.22;4974412;28;20065;-90
2022/03/30 06:31:36;;;;;;;5.72;2.88;;;;;;;19.96;44.26;98230.28;4970998;28;20037;-91
2022/03/30 06:34:04;;;;;;;5.68;3.10;;;;;;;19.96;44.45;98226.81;4971881;28;20050;-90
2022/03/30 06:36:31;;;;;;;4.15;2.65;;;;;;;19.97;44.20;98217.91;4971209;28;20029;-90
2022/03/30 06:38:58;;;;;;;4.72;2.72;;;;;;;19.97;44.32;98228.50;4974025;28;20026;-90
2022/03/30 06:41:24;;;;;;;4.18;2.40;;;;;;;19.97;44.25;98223.19;4974651;28;20062;-90
2022/03/30 06:43:50;;;;;;;4.90;2.83;;;;;;;19.96;44.32;98230.28;4975820;28;20081;-90
2022/03/30 06:46:17;;;;;;;4.35;2.88;;;;;;;19.97;44.54;98223.19;4974563;28;20027;-90
2022/03/30 06:48:45;;;;;;;6.15;2.85;;;;;;;19.96;44.44;98224.16;4975180;28;20026;-89
2022/03/30 06:51:12;;;;;;;8.15;3.25;;;;;;;19.96;44.32;98232.09;4974422;28;20564;-90
2022/03/30 06:53:38;;;;;;;5.93;2.95;;;;;;;19.95;44.14;98225.94;4974922;28;20094;-90
2022/03/30 06:56:04;;;;;;;7.03;3.33;;;;;;;19.95;44.39;98231.22;4975308;28;20027;-91
2022/03/30 06:58:30;;;;;;;5.50;2.70;;;;;;;19.96;44.02;98232.09;4976105;28;20033;-90
2022/03/30 07:00:58;;;;;;;5.32;2.60;;;;;;;19.94;44.26;98229.53;4975317;28;20439;-89
2022/03/30 07:03:26;;;;;;;4.65;2.47;;;;;;;19.94;44.20;98233.97;4974271;28;20060;-92
2022/03/30 07:05:52;;;;;;;6.53;2.90;;;;;;;19.94;44.22;98232.19;4991245;28;20027;-90
2022/03/30 07:11:03;;;;;;;5.57;2.97;;;;;;;19.94;44.52;98226.88;4990357;28;20066;-90
2022/03/30 07:13:28;;;;;;;4.07;2.30;;;;;;;19.95;44.20;98228.56;4974307;28;20491;-90
2022/03/30 07:15:54;;;;;;;5.65;2.80;;;;;;;19.94;44.44;98221.59;4974524;28;20094;-90
2022/03/30 07:18:20;;;;;;;4.63;2.33;;;;;;;19.93;44.29;98216.41;4973477;28;20058;-90
2022/03/30 07:20:46;;;;;;;5.45;2.70;;;;;;;19.92;44.35;98220.88;4975861;28;20019;-90
2022/03/30 07:23:11;;;;;;;5.07;2.50;;;;;;;19.92;44.24;98214.72;4975400;28;20102;-90
2022/03/30 07:25:37;;;;;;;4.53;2.60;;;;;;;19.92;44.39;98217.38;4974340;28;20027;-89
2022/03/30 07:28:04;;;;;;;5.53;2.75;;;;;;;19.92;44.42;98220.03;4975631;28;20014;-90
2022/03/30 07:30:30;;;;;;;4.38;2.47;;;;;;;19.94;44.23;98223.38;4975481;28;20026;-90
2022/03/30 07:32:57;;;;;;;5.70;2.38;;;;;;;19.91;44.14;98218.34;4975502;28;20027;-90
2022/03/30 07:35:27;;;;;;;5.13;2.80;;;;;;;19.91;44.22;98218.34;4975215;28;20115;-90
2022/03/30 07:37:53;;;;;;;4.22;2.47;;;;;;;19.92;44.35;98220.88;4976315;28;20022;-90
2022/03/30 07:40:21;;;;;;;4.72;2.40;;;;;;;19.93;44.41;98227.00;4977444;28;20051;-90
2022/03/30 07:42:48;;;;;;;4.78;2.65;;;;;;;19.92;44.47;98225.31;4977241;28;20051;-90
2022/03/30 07:45:14;;;;;;;4.75;2.47;;;;;;;19.90;44.10;98224.59;4977903;28;20103;-88
2022/03/30 07:47:39;;;;;;;5.43;3.00;;;;;;;19.88;44.36;98226.50;4977394;28;20026;-90
2022/03/30 07:50:06;;;;;;;6.05;2.90;;;;;;;19.89;44.28;98225.56;4975592;28;20448;-89
2022/03/30 07:52:32;;;;;;;5.88;2.63;;;;;;;19.89;44.21;98226.41;4975744;28;20034;-91
2022/03/30 07:54:58;;;;;;;4.22;2.55;;;;;;;19.88;44.50;98224.72;4974970;28;20038;-90
2022/03/30 07:57:28;;;;;;;4.78;2.50;;;;;;;19.90;44.32;98229.91;4971431;28;20372;-90
2022/03/30 07:59:55;;;;;;;5.00;2.53;;;;;;;19.88;44.15;98226.50;4988936;28;20099;-90
2022/03/30 08:02:21;;;;;;;5.00;2.95;;;;;;;19.87;44.44;98228.31;4971531;28;20027;-90
2022/03/30 08:04:47;;;;;;;5.50;2.70;;;;;;;19.86;44.36;98224.00;4971652;28;20396;-90
2022/03/30 08:07:14;;;;;;;4.65;2.72;;;;;;;19.86;44.22;98227.47;4971038;28;20022;-89
2022/03/30 08:09:40;;;;;;;5.05;2.50;;;;;;;19.87;44.20;98223.03;4973587;28;20107;-91
2022/03/30 08:12:06;;;;;;;5.10;2.65;;;;;;;19.87;44.40;98223.03;4972332;28;20034;-90
2022/03/30 08:14:31;;;;;;;4.50;2.60;;;;;;;19.85;44.61;98225.78;4973190;28;20026;-89
2022/03/30 08:16:57;;;;;;;5.75;3.20;;;;;;;19.86;44.25;98221.34;4990560;28;20023;-90
2022/03/30 08:19:23;;;;;;;4.22;2.45;;;;;;;19.84;44.18;98218.81;4974481;28;20031;-90
2022/03/30 08:24:34;;;;;;;5.22;2.65;;;;;;;19.86;44.44;98224.00;4990100;28;20078;-90
2022/03/30 08:26:59;;;;;;;5.43;2.90;;;;;;;19.85;44.32;98215.19;4970961;28;20035;-90
2022/03/30 08:29:25;;;;;;;5.03;2.78;;;;;;;19.83;44.35;98218.91;4987439;28;20023;-90
2022/03/30 08:31:51;;;;;;;5.82;3.28;;;;;;;19.86;44.47;98216.06;4971451;28;20106;-90
2022/03/30 08:34:18;;;;;;;5.53;2.97;;;;;;;19.84;44.50;98223.25;4971901;28;20027;-90
2022/03/30 08:36:44;;;;;;;4.80;2.55;;;;;;;19.83;44.40;98226.88;4971126;28;20030;-91
2022/03/30 08:39:13;;;;;;;5.15;2.88;;;;;;;19.82;44.34;98220.72;4988370;28;20030;-90
2022/03/30 08:41:44;;;;;;;5.82;2.95;;;;;;;19.83;44.18;98230.38;4971370;28;20023;-90
2022/03/30 08:44:17;;;;;;;7.30;2.95;;;;;;;19.84;44.51;98223.25;4973000;28;20031;-90
2022/03/30 08:46:47;;;;;;;5.00;2.80;;;;;;;19.82;44.27;98223.34;4979239;28;20038;-90
2022/03/30 08:49:14;;;;;;;5.32;2.95;;;;;;;19.84;44.46;98223.25;4978015;28;20018;-92
2022/03/30 08:51:42;;;;;;;4.55;2.42;;;;;;;19.83;44.40;98222.41;4978493;28;20023;-90
2022/03/30 08:54:13;;;;;;;5.95;2.47;;;;;;;19.82;44.34;98223.34;4978525;28;20046;-90
2022/03/30 08:56:42;;;;;;;6.22;2.60;;;;;;;19.82;44.54;98231.31;4977331;28;20038;-89
2022/03/30 08:59:09;;;;;;;6.55;3.00;;;;;;;19.81;44.68;98234.91;4977443;28;20341;-90
2022/03/30 09:01:37;;;;;;;5.20;2.90;;;;;;;19.84;44.32;98233.84;4976960;28;20027;-90
2022/03/30 09:04:08;;;;;;;6.60;2.60;;;;;;;19.81;44.33;98229.63;4978024;28;20050;-90
2022/03/30 09:06:39;;;;;;;5.45;2.65;;;;;;;19.81;44.41;98237.56;4976150;28;20121;-89
2022/03/30 09:09:06;;;;;;;4.45;2.50;;;;;;;19.83;44.31;98240.94;4975820;28;20027;-91
2022/03/30 09:11:40;;;;;;;4.80;2.85;;;;;;;19.80;44.54;98232.41;4976154;28;20030;-90
2022/03/30 09:14:08;;;;;;;5.03;2.80;;;;;;;19.81;44.48;98237.56;4976383;28;20040;-90
2022/03/30 09:16:42;;;;;;;5.03;2.95;;;;;;;19.80;44.53;98233.22;4974739;28;20049;-91
2022/03/30 09:19:10;;;;;;;4.38;2.55;;;;;;;19.81;44.50;98229.63;4975819;28;20031;-90
2022/03/30 09:21:54;;;;;;;6.28;3.00;;;;;;;19.81;44.19;98229.63;4974599;28;20031;-90
2022/03/30 09:24:41;;;;;;;6.60;3.00;;;;;;;19.83;44.42;98229.50;4973194;28;20050;-90
2022/03/30 09:27:07;;;;;;;;;;;;;;;19.82;44.30;98233.94;4974111;28;20038;-90
2022/03/30 09:29:38;;;;;;;4.18;2.47;;;;;;;19.81;44.38;98228.78;4975604;28;19913;-89
2022/03/30 09:32:08;;;;;;;4.90;3.00;;;;;;;19.80;44.41;98233.22;4974270;28;20373;-91
2022/03/30 09:34:45;;;;;;;5.00;2.92;;;;;;;19.81;44.25;98236.72;4976170;28;20065;-89
2022/03/30 09:37:11;;;;;;;5.20;2.88;;;;;;;19.80;44.28;98227.13;4975416;28;20035;-90
2022/03/30 09:39:39;;;;;;;5.43;2.97;;;;;;;19.79;44.58;98236.84;4976502;28;20037;-90
2022/03/30 09:42:08;;;;;;;6.75;3.17;;;;;;;19.79;44.78;98231.53;4975736;28;20045;-90
2022/03/30 09:44:54;;;;;;;4.75;2.67;;;;;;;19.78;44.43;98229.88;4993428;28;20181;-90
2022/03/30 09:47:35;;;;;;;4.55;2.85;;;;;;;19.78;44.54;98240.44;4976456;28;20026;-90
2022/03/30 09:50:00;;;;;;;5.28;2.67;;;;;;;19.79;44.65;98234.19;4976554;28;20035;-90
2022/03/30 09:52:30;;;;;;;6.22;3.80;;;;;;;19.79;44.40;98230.69;4976705;28;20099;-90
2022/03/30 09:54:58;;;;;;;5.15;2.65;;;;;;;19.79;44.27;98228.03;4978304;28;20026;-90
2022/03/30 09:57:43;;;;;;;4.63;2.47;;;;;;;19.77;44.68;98233.47;4978398;28;20077;-90
2022/03/30 10:00:18;;;;;;;6.07;2.58;;;;;;;19.77;44.43;98227.31;4978379;28;20023;-90
2022/03/30 10:02:48;;;;;;;4.80;2.72;;;;;;;19.79;44.33;98231.53;4977966;28;20027;-90
2022/03/30 10:05:17;;;;;;;5.82;2.75;;;;;;;19.76;44.45;98231.75;4978669;28;20109;-90
2022/03/30 10:07:45;;;;;;;4.20;2.30;;;;;;;19.77;44.62;98232.63;4978602;28;20101;-91
2022/03/30 10:10:12;;;;;;;5.50;2.60;;;;;;;19.75;44.50;98230.09;4979827;28;20052;-89
2022/03/30 10:12:39;;;;;;;4.25;2.63;;;;;;;19.76;44.39;98220.34;4979971;28;20023;-89
2022/03/30 10:15:06;;;;;;;5.13;3.30;;;;;;;19.75;44.24;98230.09;4979509;28;20400;-89
2022/03/30 10:17:32;;;;;;;4.78;2.67;;;;;;;19.75;44.47;98223.97;4979153;28;20066;-90
2022/03/30 10:20:01;;;;;;;5.05;2.88;;;;;;;19.75;44.31;98224.78;4976130;28;20049;-90
2022/03/30 10:22:45;;;;;;;6.35;2.47;;;;;;;19.76;44.57;98229.13;4959650;28;20038;-90
2022/03/30 10:25:20;;;;;;;5.88;2.80;;;;;;;19.75;44.37;98230.09;4978310;28;20373;-91
2022/03/30 10:28:11;;;;;;;6.50;2.90;;;;;;;19.74;44.38;98220.47;4979570;28;20035;-91
2022/03/30 10:30:40;;;;;;;4.75;2.75;;;;;;;19.75;44.31;98219.50;4978563;28;20026;-90
2022/03/30 10:33:06;;;;;;;5.43;2.90;;;;;;;19.76;44.50;98221.19;4977623;28;20109;-89
2022/03/30 10:35:43;;;;;;;5.03;2.53;;;;;;;19.75;44.61;98210.72;4977374;28;20026;-92
2022/03/30 10:38:10;;;;;;;4.93;2.90;;;;;;;19.74;44.39;98217.81;4976742;28;20104;-90
2022/03/30 10:40:36;;;;;;;4.20;2.75;;;;;;;19.76;44.63;98213.25;4977568;28;20037;-89
2022/03/30 10:43:07;;;;;;;5.35;2.88;;;;;;;19.77;44.58;98217.59;4976612;28;20042;-89
2022/03/30 10:45:57;;;;;;;5.63;2.63;;;;;;;19.76;44.39;98213.25;4993045;28;20035;-89
2022/03/30 10:48:30;;;;;;;6.45;2.97;;;;;;;19.75;44.54;98216.03;4961042;28;20117;-91
2022/03/30 10:50:58;;;;;;;4.40;2.90;;;;;;;19.76;44.67;98215.88;4989228;28;20030;-91
2022/03/30 10:53:31;;;;;;;6.40;3.22;;;;;;;19.75;44.44;98208.91;4973790;28;20351;-90
2022/03/30 10:56:09;;;;;;;5.15;2.90;;;;;;;19.76;44.46;98215.06;4976914;28;20030;-91
2022/03/30 10:58:36;;;;;;;5.72;3.03;;;;;;;19.73;44.63;98210.84;4976217;28;20039;-90
2022/03/30 11:01:13;;;;;;;4.68;2.70;;;;;;;19.75;44.49;98208.09;4975316;28;20061;-90
2022/03/30 11:03:56;;;;;;;7.15;3.33;;;;;;;19.75;44.56;98211.56;4974807;28;20078;-90
2022/03/30 11:06:22;;;;;;;6.25;3.28;;;;;;;19.75;44.37;98208.91;4976387;28;20043;-91
2022/03/30 11:08:53;;;;;;;7.53;3.60;;;;;;;19.76;44.73;98209.75;4993261;28;20033;-90
2022/03/30 11:11:34;;;;;;;6.25;2.90;;;;;;;19.74;44.79;98201.94;4975293;28;20109;-90
2022/03/30 11:14:27;;;;;;;7.03;3.53;;;;;;;19.76;44.42;98205.28;4992512;28;20029;-91
2022/03/30 11:16:55;;;;;;;5.82;3.33;;;;;;;19.73;44.73;98201.06;4975098;28;20046;-90
2022/03/30 11:19:29;;;;;;;5.95;3.00;;;;;;;19.73;44.75;98206.38;4974185;28;20026;-90
2022/03/30 11:22:16;;;;;;;7.25;3.55;;;;;;;19.74;44.70;98201.94;4974934;28;20031;-90
2022/03/30 11:24:44;;;;;;;5.78;3.33;;;;;;;19.73;44.45;98200.25;4989862;28;20123;-90
2022/03/30 11:27:09;;;;;;;6.72;3.50;;;;;;;19.75;44.54;98197.50;4991332;28;20026;-89
2022/03/30 11:29:47;;;;;;;4.53;3.05;;;;;;;19.75;44.39;98200.16;4973600;28;20041;-89
2022/03/30 11:32:32;;;;;;;6.63;3.70;;;;;;;19.73;44.53;98201.06;4972829;28;20023;-90
2022/03/30 11:35:05;;;;;;;5.40;3.03;;;;;;;19.74;44.45;98196.63;4972872;28;20061;-90
2022/03/30 11:37:36;;;;;;;7.18;3.05;;;;;;;19.74;44.40;98194.00;4972719;28;20270;-90
2022/03/30 11:40:04;;;;;;;6.32;3.10;;;;;;;19.74;44.74;98188.69;4972704;28;20042;-89
2022/03/30 11:42:30;;;;;;;5.15;3.08;;;;;;;19.75;44.40;98193.03;4988811;28;20078;-89
2022/03/30 11:45:15;;;;;;;6.57;3.78;;;;;;;19.73;44.60;98184.38;4972513;28;20034;-90
2022/03/30 11:47:43;;;;;;;7.25;3.58;;;;;;;19.73;44.79;98187.03;4973893;28;20031;-90
2022/03/30 11:50:11;;;;;;;6.75;3.70;;;;;;;19.73;44.58;98192.31;4974639;28;20027;-89
2022/03/30 11:52:36;;;;;;;5.72;3.47;;;;;;;19.75;44.74;98186.91;4975502;28;20125;-89
2022/03/30 11:55:03;;;;;;;5.97;3.30;;;;;;;19.73;44.64;98185.19;4973067;28;20449;-89
2022/03/30 11:57:29;;;;;;;6.47;3.40;;;;;;;19.73;44.85;98176.44;4965904;28;20488;-89
2022/03/30 12:00:05;;;;;;;6.45;3.10;;;;;;;19.75;44.50;98182.44;4975008;28;20027;-91
2022/03/30 12:02:30;;;;;;;4.97;3.25;;;;;;;19.75;44.56;98171.84;4977000;28;20023;-90
2022/03/30 12:04:57;;;;;;;5.35;3.42;;;;;;;19.76;44.62;98176.19;4972839;28;20046;-91
2022/03/30 12:07:24;;;;;;;4.68;2.95;;;;;;;19.74;44.72;98175.47;4972322;28;20129;-89
2022/03/30 12:09:53;;;;;;;6.38;3.38;;;;;;;19.75;44.46;98165.75;4971762;28;20409;-90
2022/03/30 12:12:36;;;;;;;7.25;3.25;;;;;;;19.75;44.63;98163.91;4968232;28;20029;-91
2022/03/30 12:15:07;;;;;;;5.60;3.47;;;;;;;19.74;44.70;98162.22;4967567;28;20023;-90
2022/03/30 12:17:34;;;;;;;6.50;3.47;;;;;;;19.74;44.61;98156.94;4965104;28;20019;-90
2022/03/30 12:20:00;;;;;;;5.43;3.47;;;;;;;19.76;44.56;98156.84;4969818;28;20023;-91
2022/03/30 12:22:27;;;;;;;5.38;3.28;;;;;;;19.74;44.40;98154.28;4974891;28;20027;-89
2022/03/30 12:24:53;;;;;;;6.53;3.75;;;;;;;19.73;44.55;98153.44;4973929;28;20022;-91
2022/03/30 12:27:19;;;;;;;6.78;3.42;;;;;;;19.74;44.54;98149.00;4975558;28;20041;-91
2022/03/30 12:29:45;;;;;;;6.85;3.67;;;;;;;19.73;44.55;98152.63;4974422;28;20034;-90
2022/03/30 12:32:15;;;;;;;6.10;3.25;;;;;;;19.72;44.64;98150.94;4977106;28;20037;-91
2022/03/30 12:34:43;;;;;;;6.43;3.33;;;;;;;19.71;44.50;98151.91;4979524;28;20485;-91
2022/03/30 12:37:11;;;;;;;6.50;4.03;;;;;;;19.72;44.61;98148.28;4978684;28;20026;-91
2022/03/30 12:39:42;;;;;;;6.47;3.55;;;;;;;19.71;44.53;98138.66;4978017;28;20022;-90
2022/03/30 12:42:09;;;;;;;6.28;3.63;;;;;;;19.71;44.80;98138.66;4978308;28;20027;-90
2022/03/30 12:44:37;;;;;;;7.03;3.70;;;;;;;19.72;44.81;98137.69;4980920;28;20095;-91
2022/03/30 12:47:03;;;;;;;5.68;3.28;;;;;;;19.70;44.61;98136.97;4981553;28;20043;-90
2022/03/30 12:49:41;;;;;;;6.22;3.60;;;;;;;19.69;44.56;98132.63;4980386;28;20038;-90
2022/03/30 12:52:14;;;;;;;4.93;3.30;;;;;;;19.70;44.69;98126.38;4980137;28;20034;-91
2022/03/30 12:54:44;;;;;;;10.27;3.88;;;;;;;19.72;44.85;98116.53;4995983;28;20020;-88
2022/03/30 12:57:12;;;;;;;7.10;3.33;;;;;;;19.73;44.72;98126.16;4969162;28;20075;-90
2022/03/30 12:59:40;;;;;;;5.70;3.15;;;;;;;19.72;44.87;98119.19;4980902;28;20019;-90
2022/03/30 13:02:23;;;;;;;6.32;3.55;;;;;;;19.72;44.59;98114.72;4997065;28;20034;-88
2022/03/30 13:04:51;;;;;;;6.88;3.30;;;;;;;19.72;45.11;98113.88;4974601;28;20092;-90
2022/03/30 13:07:21;;;;;;;5.90;3.38;;;;;;;19.72;44.68;98113.88;4974827;28;20026;-90
2022/03/30 13:10:12;;;;;;;6.75;4.07;;;;;;;19.72;44.82;98105.94;4992833;28;20042;-88
2022/03/30 13:12:44;;;;;;;9.45;3.83;;;;;;;19.72;44.78;98104.13;4976983;28;20476;-89
2022/03/30 13:15:11;;;;;;;7.28;3.60;;;;;;;19.73;44.78;98104.97;4975816;28;20380;-90
2022/03/30 13:17:57;;;;;;;7.40;3.78;;;;;;;19.73;45.03;98108.44;4990998;28;20026;-91
2022/03/30 13:23:50;;;;;;;6.97;3.50;;;;;;;19.73;44.96;98095.22;4993558;28;20085;-89
2022/03/30 13:26:30;;;;;;;7.93;3.67;;;;;;;19.73;44.81;98094.38;4977339;28;20041;-91
2022/03/30 13:29:42;;;;;;;7.38;3.60;;;;;;;19.72;45.00;98087.41;4975953;28;20030;-90
2022/03/30 13:32:11;;;;;;;5.85;3.38;;;;;;;19.73;44.85;98094.38;4977221;28;20051;-91
2022/03/30 13:34:37;;;;;;;5.25;3.55;;;;;;;19.72;45.12;98090.06;4978638;28;20050;-91
2022/03/30 13:37:58;;;;;;;6.70;3.80;;;;;;;19.73;45.08;98083.81;4976754;28;20027;-91
2022/03/30 13:40:28;;;;;;;6.55;3.60;;;;;;;19.73;45.00;98086.44;4978958;28;20026;-89
2022/03/30 13:43:13;;;;;;;5.50;3.55;;;;;;;19.73;44.94;98086.44;4963557;28;20027;-87
2022/03/30 13:45:39;;;;;;;7.28;4.00;;;;;;;19.73;44.75;98084.63;4969924;28;20023;-91
2022/03/30 13:51:29;;;;;;;6.85;3.70;;;;;;;19.73;45.01;98079.34;5000310;28;20034;-91
2022/03/30 14:19:43;;;;;;;6.05;3.85;;;;;;;19.72;44.96;98047.72;5121032;23;20027;-93
2022/03/30 14:22:16;;;;;;;5.60;3.40;;;;;;;19.72;44.94;98042.44;4983748;28;20046;-93
2022/03/30 14:24:45;;;;;;;5.30;3.55;;;;;;;19.72;44.83;98045.06;4967742;28;20055;-93
2022/03/30 14:27:11;;;;;;;6.65;3.83;;;;;;;19.72;44.94;98031.84;5000455;28;20038;-90
2022/03/30 14:29:45;;;;;;;6.03;3.45;;;;;;;19.72;44.91;98039.78;4984263;28;20086;-92
2022/03/30 14:32:16;;;;;;;7.50;3.85;;;;;;;19.70;44.80;98029.31;4983432;28;20022;-91
2022/03/30 14:34:50;;;;;;;6.60;4.28;;;;;;;19.71;45.01;98032.81;4998307;28;20037;-91
2022/03/30 14:37:38;;;;;;;6.93;3.92;;;;;;;19.69;44.90;98018.84;4985078;28;20022;-91
2022/03/30 14:40:08;;;;;;;8.27;4.22;;;;;;;19.70;44.75;98020.50;4984075;28;20083;-92
2022/03/30 14:42:40;;;;;;;6.82;3.80;;;;;;;19.67;45.00;98026.06;4981602;28;20043;-91
2022/03/30 14:45:14;;;;;;;6.22;4.25;;;;;;;19.69;44.97;98014.41;4936283;28;20026;-91
2022/03/30 14:47:42;;;;;;;7.43;4.22;;;;;;;19.69;45.19;98010.91;4968899;28;20050;-94
2022/03/30 14:50:19;;;;;;;7.25;3.95;;;;;;;19.67;45.17;98012.84;4968682;28;20015;-93
2022/03/30 14:52:56;;;;;;;6.78;4.53;;;;;;;19.69;45.37;98014.41;4953159;28;20026;-93
2022/03/30 14:55:21;;;;;;;6.35;4.18;;;;;;;19.67;45.15;98007.53;4968061;28;20019;-93
2022/03/30 14:57:52;;;;;;;7.53;5.22;;;;;;;19.69;45.11;98013.53;4996471;23;20051;-93
2022/03/30 15:00:23;;;;;;;8.25;4.80;;;;;;;19.68;45.35;98012.72;4999704;28;20034;-92
2022/03/30 15:02:57;;;;;;;7.90;5.10;;;;;;;19.69;44.95;98006.47;4989697;28;20090;-91
2022/03/30 15:05:25;;;;;;;10.45;5.95;;;;;;;19.69;44.90;97997.66;4981706;28;20046;-91
2022/03/30 15:07:52;;;;;;;11.02;7.07;;;;;;;19.69;45.10;97997.66;4982736;28;20025;-91
2022/03/30 15:10:37;;;;;;;12.77;7.88;;;;;;;19.69;45.15;98000.31;5000029;28;20090;-92
2022/03/30 15:13:09;;;;;;;14.43;7.82;;;;;;;19.67;45.39;97995.13;4982628;28;20015;-92
2022/03/30 15:15:54;;;;;;;14.07;8.93;;;;;;;19.67;45.21;97992.47;4999287;28;20046;-90
2022/03/30 15:18:20;;;;;;;16.60;8.85;;;;;;;19.66;45.17;97987.34;4994913;28;20074;-89
2022/03/30 15:20:47;;;;;;;13.20;8.15;;;;;;;19.65;45.59;97986.47;4975174;28;20041;-89
2022/03/30 15:23:13;;;;;;;14.05;8.82;;;;;;;19.65;45.40;97986.47;4978890;28;20018;-90
2022/03/30 15:25:39;;;;;;;16.67;9.77;;;;;;;19.67;45.34;97989.84;4979415;28;20046;-89
2022/03/30 15:28:08;;;;;;;18.58;11.00;;;;;;;19.67;45.16;97983.72;4998178;28;20022;-91
2022/03/30 15:30:35;;;;;;;17.50;10.57;;;;;;;19.66;45.16;97976.75;4981245;28;20018;-91
2022/03/30 15:33:02;;;;;;;18.58;11.27;;;;;;;19.66;45.31;97976.75;4998517;28;20011;-91
2022/03/30 15:35:29;;;;;;;16.42;11.55;;;;;;;19.67;45.42;97978.44;4965716;28;20031;-91
2022/03/30 15:37:56;;;;;;;17.95;11.90;;;;;;;19.68;45.54;97969.53;4979668;28;20015;-91
2022/03/30 15:40:31;;;;;;;20.15;13.23;;;;;;;19.66;45.38;97958.22;4982185;28;20090;-91
2022/03/30 15:42:57;;;;;;;19.38;13.75;;;;;;;19.68;45.18;97964.22;4981825;28;20050;-91
2022/03/30 15:45:31;;;;;;;22.73;13.57;;;;;;;19.67;45.36;97962.56;4979389;28;20058;-92
2022/03/30 15:47:57;;;;;;;25.08;15.30;;;;;;;19.69;45.16;97961.47;4981312;28;20015;-92
2022/03/30 15:50:32;;;;;;;25.48;15.40;;;;;;;19.70;45.57;97962.28;4982306;28;20023;-92
2022/03/30 15:52:58;;;;;;;25.58;15.52;;;;;;;19.69;45.27;97960.63;4985389;28;20046;-91
2022/03/30 15:55:29;;;;;;;23.55;15.27;;;;;;;19.69;45.38;97957.97;4988899;28;20022;-90
2022/03/30 15:57:55;;;;;;;24.13;15.52;;;;;;;19.70;45.28;97962.28;4989379;28;20047;-92
2022/03/30 16:00:23;;;;;;;23.77;16.00;;;;;;;19.68;45.30;97958.94;4989405;28;20094;-90
2022/03/30 16:02:49;;;;;;;28.75;16.15;;;;;;;19.70;45.13;97967.59;4973551;28;20026;-91
2022/03/30 16:05:16;;;;;;;26.80;17.17;;;;;;;19.69;45.36;97971.19;4973170;28;20086;-92
2022/03/30 16:10:39;;;;;;;27.15;17.65;;;;;;;19.70;45.46;97960.50;4991775;28;20095;-90
2022/03/30 16:13:17;;;;;;;27.10;17.30;;;;;;;19.70;45.40;97968.44;4990007;28;20030;-90
2022/03/30 16:16:11;;;;;;;26.73;17.45;;;;;;;19.70;45.26;97972.88;4955486;28;20020;-92
2022/03/30 16:18:46;;;;;;;31.90;18.65;;;;;;;19.70;45.26;97973.72;4988976;28;20018;-92
2022/03/30 16:21:15;;;;;;;29.05;18.38;;;;;;;19.72;45.50;97970.97;4989047;28;20082;-93
2022/03/30 16:23:49;;;;;;;27.25;18.10;;;;;;;19.73;45.22;97967.34;4988768;28;20046;-93
2022/03/30 16:26:56;;;;;;;28.10;18.20;;;;;;;19.72;45.14;97970.97;5002974;28;20026;-91
2022/03/30 16:29:40;;;;;;;29.20;18.45;;;;;;;19.74;45.10;97969.03;4998472;28;20039;-92
2022/03/30 16:32:06;;;;;;;29.88;19.20;;;;;;;19.74;45.32;97969.03;4966147;28;20035;-90
2022/03/30 16:34:33;;;;;;;26.48;18.10;;;;;;;19.73;45.44;97962.06;4973042;28;20519;-89
2022/03/30 16:41:05;;;;;;;26.92;18.55;;;;;;;19.73;45.38;97967.34;4989076;28;20045;-90
2022/03/30 16:44:07;;;;;;;28.27;19.38;;;;;;;19.74;45.34;97963.75;4966123;28;20030;-92
2022/03/30 16:46:55;;;;;;;28.73;19.33;;;;;;;19.75;45.20;97964.59;4969935;28;20026;-90
2022/03/30 16:49:30;;;;;;;33.35;19.30;;;;;;;19.75;45.32;97959.31;4970169;28;20223;-90
2022/03/30 16:52:00;;;;;;;28.55;18.75;;;;;;;19.74;45.50;97958.44;4973495;28;20037;-89
2022/03/30 16:54:28;;;;;;;27.70;19.17;;;;;;;19.75;45.34;97954.84;4971449;28;20022;-90
2022/03/30 16:56:53;;;;;;;31.13;20.23;;;;;;;19.74;45.20;97963.75;4971666;28;20026;-90